Time;durP1;ratioP1;P1;durP2;ratioP2;P2;SDS_P1;SDS_P2;PMS_P1;PMS_P2;Temp;Humidity;BMP_temperature;BMP_pressure;BME280_temperature;BME280_humidity;BME280_pressure;Samples;Min_cycle;Max_cycle;Signal;HPM_P1;HPM_P2
2023/01/13 00:01:54;;;;;;;13.02;7.13;;;;;;;-3.82;58.46;100604.31;5075325;28;20113;-66
2023/01/13 00:04:19;;;;;;;10.98;6.45;;;;;;;-3.90;58.90;100597.38;5075611;28;20115;-62
2023/01/13 00:06:45;;;;;;;10.70;6.47;;;;;;;-3.82;58.82;100606.94;5075197;28;20429;-63
2023/01/13 00:09:10;;;;;;;11.27;6.25;;;;;;;-3.78;59.04;100596.41;5074295;28;20039;-59
2023/01/13 00:11:36;;;;;;;11.32;6.72;;;;;;;-3.79;58.19;100612.16;5074737;28;20031;-63
2023/01/13 00:14:01;;;;;;;9.85;6.47;;;;;;;-3.86;58.98;100615.66;5075217;28;20029;-63
2023/01/13 00:16:26;;;;;;;9.90;5.85;;;;;;;-3.81;58.35;100606.06;5075358;28;20035;-63
2023/01/13 00:18:52;;;;;;;12.45;6.50;;;;;;;-3.79;58.46;100601.69;5072609;28;20036;-62
2023/01/13 00:21:23;;;;;;;10.80;6.50;;;;;;;-3.87;59.06;100599.13;5074755;28;20064;-61
2023/01/13 00:23:50;;;;;;;12.98;6.35;;;;;;;-3.89;59.03;100587.81;5075224;28;20343;-63
2023/01/13 00:26:24;;;;;;;9.90;6.10;;;;;;;-3.89;59.27;100596.50;5073632;28;20046;-63
2023/01/13 00:28:54;;;;;;;11.82;6.50;;;;;;;-3.96;59.36;100586.13;5074577;28;20480;-63
2023/01/13 00:31:20;;;;;;;10.45;6.70;;;;;;;-3.92;59.35;100593.06;5074289;28;20064;-61
2023/01/13 00:33:48;;;;;;;12.50;6.90;;;;;;;-4.07;59.55;100558.31;5074593;28;20556;-61
2023/01/13 00:36:14;;;;;;;13.90;6.57;;;;;;;-3.84;59.54;100593.00;5074645;28;20510;-63
2023/01/13 00:38:41;;;;;;;9.45;5.90;;;;;;;-3.76;59.32;100592.03;5075058;28;20025;-60
2023/01/13 00:41:12;;;;;;;10.60;6.63;;;;;;;-3.69;59.04;100595.47;5074899;28;20368;-62
2023/01/13 00:43:38;;;;;;;8.43;6.20;;;;;;;-3.94;59.45;100577.38;5074380;28;20357;-59
2023/01/13 00:46:06;;;;;;;11.35;5.95;;;;;;;-3.85;59.18;100580.81;5074417;28;20402;-61
2023/01/13 00:48:32;;;;;;;14.70;6.78;;;;;;;-3.80;59.71;100602.56;5074940;28;20047;-62
2023/01/13 00:51:04;;;;;;;10.32;6.55;;;;;;;-3.96;59.23;100573.06;5074155;28;20078;-61
2023/01/13 00:53:34;;;;;;;12.68;6.43;;;;;;;-3.80;59.72;100579.00;5073324;28;20112;-63
2023/01/13 00:56:16;;;;;;;13.93;6.90;;;;;;;-3.72;59.36;100592.88;5074445;28;20036;-62
2023/01/13 00:58:43;;;;;;;9.95;6.38;;;;;;;-3.74;59.15;100576.31;5074329;28;20141;-62
2023/01/13 01:01:12;;;;;;;10.18;6.25;;;;;;;-3.77;59.41;100571.13;5074288;28;20064;-62
2023/01/13 01:03:38;;;;;;;11.15;6.75;;;;;;;-3.82;59.15;100573.78;5074098;28;20032;-59
2023/01/13 01:06:07;;;;;;;11.15;6.75;;;;;;;-3.80;59.67;100568.53;5074473;28;20036;-62
2023/01/13 01:08:34;;;;;;;13.00;6.63;;;;;;;-3.77;59.65;100569.38;5074488;28;20040;-62
2023/01/13 01:11:07;;;;;;;10.63;6.65;;;;;;;-3.71;59.76;100547.50;5073617;28;20405;-62
2023/01/13 01:13:33;;;;;;;13.30;6.28;;;;;;;-3.73;59.49;100543.19;5074052;28;20036;-62
2023/01/13 01:16:01;;;;;;;10.13;6.03;;;;;;;-3.89;59.74;100512.78;5074277;28;20039;-60
2023/01/13 01:18:27;;;;;;;11.75;6.60;;;;;;;-3.73;59.39;100530.97;5074528;28;20039;-61
2023/01/13 01:20:52;;;;;;;13.18;6.50;;;;;;;-3.68;59.43;100534.38;5074054;28;20028;-62
2023/01/13 01:23:18;;;;;;;9.93;6.05;;;;;;;-3.63;59.62;100537.81;5073564;28;20403;-62
2023/01/13 01:25:43;;;;;;;11.65;6.60;;;;;;;-3.61;59.38;100533.47;5072830;28;20422;-63
2023/01/13 01:28:09;;;;;;;10.20;6.35;;;;;;;-3.58;58.95;100536.94;5074334;28;20468;-62
2023/01/13 01:30:34;;;;;;;10.93;6.00;;;;;;;-3.63;59.57;100542.19;5073430;28;20081;-64
2023/01/13 01:33:02;;;;;;;9.60;6.35;;;;;;;-3.68;59.45;100544.84;5073376;28;20460;-64
2023/01/13 01:35:27;;;;;;;11.93;7.18;;;;;;;-3.62;59.58;100546.56;5074107;28;20052;-63
2023/01/13 01:37:53;;;;;;;9.55;5.28;;;;;;;-3.65;58.95;100531.72;5074020;28;20040;-62
2023/01/13 01:40:18;;;;;;;10.20;6.07;;;;;;;-3.72;59.33;100530.06;5073131;28;20223;-63
2023/01/13 01:45:29;;;;;;;9.13;5.22;;;;;;;-3.67;59.55;100530.88;5073814;28;20107;-61
2023/01/13 01:47:59;;;;;;;9.73;5.97;;;;;;;-3.81;60.25;100520.56;5073667;28;20116;-62
2023/01/13 01:50:26;;;;;;;9.85;6.63;;;;;;;-3.92;59.93;100499.75;5072107;28;20028;-62
2023/01/13 01:52:56;;;;;;;10.85;6.63;;;;;;;-3.78;60.27;100503.97;5072731;28;20029;-63
2023/01/13 01:55:29;;;;;;;10.32;6.07;;;;;;;-3.69;59.87;100496.00;5072999;28;20024;-63
2023/01/13 01:58:15;;;;;;;11.45;6.43;;;;;;;-3.59;59.75;100495.94;5072375;28;20044;-64
2023/01/13 02:00:41;;;;;;;11.25;5.78;;;;;;;-3.57;59.10;100488.94;5058173;28;20033;-63
2023/01/13 02:03:08;;;;;;;8.00;5.30;;;;;;;-3.62;59.47;100487.22;5052871;28;20377;-63
2023/01/13 02:05:34;;;;;;;13.05;6.05;;;;;;;-3.76;59.16;100489.13;5052692;28;20410;-62
2023/01/13 02:08:00;;;;;;;11.98;6.32;;;;;;;-3.75;59.76;100502.16;5053380;28;20116;-64
2023/01/13 02:10:28;;;;;;;10.07;5.40;;;;;;;-3.61;59.22;100506.41;5052951;28;20037;-63
2023/01/13 02:13:00;;;;;;;8.23;5.43;;;;;;;-3.68;59.68;100496.91;5053028;28;20033;-63
2023/01/13 02:15:41;;;;;;;8.88;6.50;;;;;;;-3.82;59.97;100491.81;5052909;28;20037;-64
2023/01/13 02:18:27;;;;;;;12.40;6.00;;;;;;;-3.85;59.98;100484.84;5053022;28;20025;-64
2023/01/13 02:21:36;;;;;;;9.45;6.10;;;;;;;-3.76;59.75;100476.03;5052734;28;20043;-62
2023/01/13 02:27:38;;;;;;;8.35;5.72;;;;;;;-3.72;59.88;100485.59;5073142;28;20024;-64
2023/01/13 02:33:29;;;;;;;9.82;5.68;;;;;;;-3.66;59.81;100485.50;5072681;28;20024;-64
2023/01/13 02:36:04;;;;;;;9.07;5.97;;;;;;;-3.69;60.07;100482.94;5072853;28;20044;-63
2023/01/13 02:38:33;;;;;;;;;;;;;;;-3.40;58.70;100484.31;5073011;28;20087;-64
2023/01/13 02:44:11;;;;;;;11.32;6.10;;;;;;;-3.62;59.17;100487.22;5073098;28;20433;-62
2023/01/13 02:47:04;;;;;;;9.82;5.65;;;;;;;-3.65;59.56;100497.72;5072494;28;20024;-63
2023/01/13 02:49:37;;;;;;;8.32;5.20;;;;;;;-3.67;59.75;100482.94;5055247;28;20086;-62
2023/01/13 02:52:14;;;;;;;11.32;5.80;;;;;;;-3.61;59.39;100494.19;5072565;28;20074;-69
2023/01/13 02:54:46;;;;;;;10.35;6.03;;;;;;;-3.62;59.25;100497.69;5072038;28;20074;-62
2023/01/13 02:57:16;;;;;;;8.20;5.55;;;;;;;-3.69;59.61;100489.94;5072070;28;20039;-63
2023/01/13 02:59:42;;;;;;;8.70;5.28;;;;;;;-3.70;60.08;100507.38;5072089;28;20055;-63
2023/01/13 03:02:12;;;;;;;10.80;5.97;;;;;;;-3.67;60.10;100499.47;5072736;28;20063;-59
2023/01/13 03:04:45;;;;;;;8.95;5.30;;;;;;;-3.58;59.43;100495.91;5072163;28;20112;-61
2023/01/13 03:07:52;;;;;;;8.45;5.03;;;;;;;-3.57;59.29;100499.41;5072363;28;20032;-62
2023/01/13 03:10:26;;;;;;;8.80;5.68;;;;;;;-3.64;59.51;100494.22;5071481;28;20396;-64
2023/01/13 03:13:26;;;;;;;13.13;5.77;;;;;;;-3.62;59.86;100496.81;5058588;28;20040;-63
2023/01/13 03:16:13;;;;;;;7.97;5.57;;;;;;;-3.62;59.92;100492.47;5051997;28;20319;-63
2023/01/13 03:18:59;;;;;;;7.85;5.32;;;;;;;-3.61;59.38;100488.09;5055593;28;20071;-63
2023/01/13 03:21:29;;;;;;;9.98;5.68;;;;;;;-3.63;59.37;100472.38;5056563;28;20376;-64
2023/01/13 03:24:05;;;;;;;9.82;5.50;;;;;;;-3.66;59.75;100469.81;5056405;28;20033;-63
2023/01/13 03:26:49;;;;;;;10.45;5.93;;;;;;;-3.63;60.24;100480.22;5055956;28;20044;-63
2023/01/13 03:29:33;;;;;;;8.52;5.93;;;;;;;-3.75;59.91;100459.44;5056199;28;20025;-62
2023/01/13 03:32:05;;;;;;;10.18;6.25;;;;;;;-3.57;59.36;100476.69;5055441;28;20128;-63
2023/01/13 03:34:36;;;;;;;12.07;5.85;;;;;;;-3.59;59.97;100485.47;5056638;28;20041;-64
2023/01/13 03:37:06;;;;;;;8.18;5.75;;;;;;;-3.61;59.69;100483.72;5055080;28;20420;-64
2023/01/13 03:39:36;;;;;;;9.88;5.65;;;;;;;-3.62;59.66;100475.88;5055850;28;20400;-60
2023/01/13 03:42:18;;;;;;;10.55;5.57;;;;;;;-3.55;59.32;100481.91;5056340;28;20120;-62
2023/01/13 03:45:02;;;;;;;10.00;5.45;;;;;;;-3.63;59.83;100474.16;5055322;28;20039;-63
2023/01/13 03:47:48;;;;;;;;;;;;;;;-3.38;58.61;100490.41;5056039;28;20128;-61
2023/01/13 03:50:34;;;;;;;7.43;4.50;;;;;;;-3.54;58.82;100468.78;5055625;28;19908;-63
2023/01/13 03:53:12;;;;;;;8.43;4.97;;;;;;;-3.63;58.63;100466.28;5055409;28;20400;-63
2023/01/13 03:55:44;;;;;;;11.10;5.00;;;;;;;-3.96;59.54;100430.03;5059832;28;20043;-67
2023/01/13 03:58:15;;;;;;;7.60;5.03;;;;;;;-3.71;59.26;100483.84;5075420;28;20024;-62
2023/01/13 04:00:59;;;;;;;6.35;4.47;;;;;;;-3.69;59.54;100490.78;5073944;28;20085;-63
2023/01/13 04:03:37;;;;;;;10.70;5.00;;;;;;;-3.68;59.42;100492.50;5055380;28;20025;-62
2023/01/13 04:06:13;;;;;;;10.60;5.20;;;;;;;-3.71;59.16;100482.09;5073161;28;20036;-62
2023/01/13 04:08:44;;;;;;;7.68;5.13;;;;;;;-3.74;59.82;100500.44;5074233;28;20042;-65
2023/01/13 04:11:17;;;;;;;9.88;4.90;;;;;;;-3.74;59.40;100492.59;5064581;28;20086;-62
2023/01/13 04:13:46;;;;;;;9.93;4.82;;;;;;;-3.71;58.83;100476.00;5055031;28;20029;-62
2023/01/13 04:16:12;;;;;;;13.15;5.20;;;;;;;-3.71;59.27;100482.09;5054066;28;20064;-61
2023/01/13 04:18:38;;;;;;;6.95;4.60;;;;;;;-3.77;59.41;100482.16;5054793;28;20453;-66
2023/01/13 04:21:05;;;;;;;9.60;5.10;;;;;;;-3.75;59.10;100503.94;5055596;28;20024;-62
2023/01/13 04:23:31;;;;;;;9.13;5.10;;;;;;;-3.81;59.58;100504.88;5066343;28;20029;-62
2023/01/13 04:25:57;;;;;;;9.05;5.10;;;;;;;-3.83;60.06;100483.09;5074407;28;20024;-63
2023/01/13 04:28:24;;;;;;;8.00;4.45;;;;;;;-3.79;59.81;100490.00;5075010;28;20028;-62
2023/01/13 04:30:49;;;;;;;7.65;4.70;;;;;;;-3.79;59.22;100491.78;5075250;28;20024;-61
2023/01/13 04:33:17;;;;;;;11.23;5.60;;;;;;;-3.78;59.40;100506.59;5074238;28;20032;-62
2023/01/13 04:35:43;;;;;;;10.20;4.70;;;;;;;-3.86;59.14;100492.69;5074577;28;20036;-61
2023/01/13 04:38:15;;;;;;;7.88;4.82;;;;;;;-3.80;59.73;100505.75;5075074;28;20032;-62
2023/01/13 04:40:41;;;;;;;7.70;4.68;;;;;;;-3.80;59.57;100503.97;5074725;28;20029;-61
2023/01/13 04:43:07;;;;;;;11.20;4.60;;;;;;;-3.79;59.57;100504.88;5074020;28;20498;-60
2023/01/13 04:45:33;;;;;;;5.65;4.15;;;;;;;-3.89;59.09;100481.38;5074478;28;20051;-59
2023/01/13 04:47:58;;;;;;;8.55;5.18;;;;;;;-3.83;59.15;100485.69;5075038;28;20456;-63
2023/01/13 04:50:24;;;;;;;9.68;5.18;;;;;;;-4.04;59.91;100458.03;5074759;28;20373;-63
2023/01/13 04:52:51;;;;;;;9.00;4.57;;;;;;;-3.80;59.37;100505.75;5074310;28;20025;-62
2023/01/13 04:55:18;;;;;;;8.50;4.50;;;;;;;-3.81;59.02;100496.16;5074309;28;20024;-63
2023/01/13 04:57:43;;;;;;;9.63;5.00;;;;;;;-3.93;59.34;100487.53;5073658;28;20025;-64
2023/01/13 05:00:11;;;;;;;14.43;4.85;;;;;;;-3.95;59.50;100488.47;5061702;28;20048;-62
2023/01/13 05:02:37;;;;;;;8.68;5.15;;;;;;;-3.91;59.24;100479.69;5054358;28;20025;-63
2023/01/13 05:05:03;;;;;;;9.13;4.85;;;;;;;-3.87;59.60;100501.44;5062001;28;20083;-62
2023/01/13 05:07:29;;;;;;;9.02;4.82;;;;;;;-3.90;59.06;100487.50;5074242;28;20032;-63
2023/01/13 05:09:55;;;;;;;6.10;4.28;;;;;;;-3.86;59.13;100503.16;5073815;28;20040;-64
2023/01/13 05:17:50;;;;;;;12.53;4.93;;;;;;;-3.89;59.49;100504.94;5054262;28;20029;-62
2023/01/13 05:20:15;;;;;;;6.18;4.55;;;;;;;-3.81;59.31;100522.31;5053769;28;20047;-62
2023/01/13 05:25:26;;;;;;;11.95;5.05;;;;;;;-3.84;59.43;100517.97;5053347;28;20021;-63
2023/01/13 05:27:56;;;;;;;8.00;4.80;;;;;;;-3.86;59.58;100524.97;5062349;28;20448;-65
2023/01/13 05:30:28;;;;;;;7.93;5.50;;;;;;;-3.82;59.92;100520.59;5073358;28;20177;-57
2023/01/13 05:32:55;;;;;;;6.60;4.75;;;;;;;-3.85;59.37;100523.25;5072894;28;20043;-55
2023/01/13 05:35:21;;;;;;;7.63;4.53;;;;;;;-3.81;59.75;100523.19;5073011;28;20399;-55
2023/01/13 05:37:47;;;;;;;10.10;5.13;;;;;;;-3.81;59.11;100514.47;5073346;28;20036;-71
2023/01/13 05:43:19;;;;;;;6.90;4.60;;;;;;;-3.86;59.41;100522.38;5067492;28;20426;-60
2023/01/13 05:45:47;;;;;;;8.65;4.85;;;;;;;-4.15;59.82;100483.41;5072658;28;20060;-59
2023/01/13 05:48:13;;;;;;;10.77;4.82;;;;;;;-3.97;59.73;100530.31;5073294;28;20090;-62
2023/01/13 05:50:39;;;;;;;7.03;4.65;;;;;;;-3.96;60.15;100534.66;5072672;28;20033;-58
2023/01/13 05:53:05;;;;;;;7.50;4.57;;;;;;;-3.93;59.06;100529.41;5073066;28;20388;-62
2023/01/13 05:55:30;;;;;;;8.10;4.85;;;;;;;-3.92;59.48;100527.66;5073296;28;20144;-61
2023/01/13 05:57:56;;;;;;;8.13;4.95;;;;;;;-3.89;59.26;100517.16;5072694;28;20044;-62
2023/01/13 06:00:21;;;;;;;9.93;5.13;;;;;;;-3.84;59.40;100507.50;5072394;28;20036;-62
2023/01/13 06:02:47;;;;;;;14.02;5.95;;;;;;;-3.93;59.74;100518.94;5072755;28;20041;-61
2023/01/13 06:05:12;;;;;;;8.02;4.97;;;;;;;-3.98;59.63;100515.50;5073015;28;20029;-61
2023/01/13 06:07:38;;;;;;;10.52;4.93;;;;;;;-4.07;59.73;100485.06;5072920;28;20452;-66
2023/01/13 06:10:04;;;;;;;13.35;5.13;;;;;;;-3.94;59.47;100501.50;5072940;28;20110;-61
2023/01/13 06:12:29;;;;;;;9.30;5.32;;;;;;;-3.93;59.73;100515.47;5072521;28;20471;-60
2023/01/13 06:14:54;;;;;;;9.02;4.55;;;;;;;-4.12;59.35;100473.78;5072651;28;20029;-53
2023/01/13 06:17:20;;;;;;;6.93;4.88;;;;;;;-3.89;59.44;100519.78;5071967;28;20113;-61
2023/01/13 06:19:45;;;;;;;9.27;5.20;;;;;;;-3.93;59.74;100508.47;5072049;28;20445;-61
2023/01/13 06:22:12;;;;;;;7.30;4.63;;;;;;;-3.87;59.95;100512.78;5071655;28;20483;-58
2023/01/13 06:24:38;;;;;;;9.93;5.50;;;;;;;-3.82;59.51;100512.75;5073013;28;20029;-56
2023/01/13 06:27:05;;;;;;;7.65;4.55;;;;;;;-3.83;59.41;100506.63;5072096;28;20460;-58
2023/01/13 06:29:30;;;;;;;9.07;5.10;;;;;;;-3.85;59.70;100504.94;5072378;28;20024;-60
2023/01/13 06:31:57;;;;;;;10.02;5.68;;;;;;;-4.01;59.43;100450.13;5072057;28;20063;-60
2023/01/13 06:34:22;;;;;;;8.57;5.70;;;;;;;-3.79;59.25;100507.47;5072429;28;20833;-58
2023/01/13 06:36:52;;;;;;;7.25;4.35;;;;;;;-3.81;59.53;100517.09;5072226;28;20102;-60
2023/01/13 06:39:23;;;;;;;9.10;4.88;;;;;;;-3.74;59.76;100513.53;5071525;28;20127;-59
2023/01/13 06:44:35;;;;;;;7.22;4.60;;;;;;;-3.73;58.75;100515.25;5072377;28;20025;-58
2023/01/13 06:47:01;;;;;;;9.77;5.13;;;;;;;-3.78;59.21;100503.97;5071792;28;20043;-56
2023/01/13 06:49:26;;;;;;;9.30;4.88;;;;;;;-3.75;59.33;100511.78;5071795;28;20025;-57
2023/01/13 06:51:52;;;;;;;11.40;5.38;;;;;;;-3.75;59.50;100511.78;5071656;28;20028;-58
2023/01/13 06:54:17;;;;;;;8.38;5.18;;;;;;;-3.80;59.33;100509.22;5072705;28;20036;-63
2023/01/13 06:56:43;;;;;;;5.63;3.60;;;;;;;-3.89;59.16;100488.38;5069228;28;20028;-62
2023/01/13 06:59:08;;;;;;;7.10;4.53;;;;;;;-3.79;59.14;100489.16;5070264;28;20040;-62
2023/01/13 07:01:33;;;;;;;8.90;4.30;;;;;;;-3.75;58.94;100491.69;5070915;28;20032;-61
2023/01/13 07:03:59;;;;;;;10.30;5.10;;;;;;;-3.78;58.87;100509.22;5071977;28;20107;-65
2023/01/13 07:06:24;;;;;;;9.52;4.65;;;;;;;-3.77;59.38;100487.38;5071611;28;20056;-61
2023/01/13 07:08:50;;;;;;;7.85;5.00;;;;;;;-3.76;59.12;100489.97;5070963;28;20127;-60
2023/01/13 07:11:15;;;;;;;7.38;4.97;;;;;;;-3.81;59.76;100497.00;5071908;28;20033;-60
2023/01/13 07:16:26;;;;;;;12.43;5.13;;;;;;;-3.70;59.24;100504.75;5070611;28;20356;-62
2023/01/13 07:18:52;;;;;;;9.52;5.13;;;;;;;-3.70;59.61;100501.28;5071264;28;20372;-58
2023/01/13 07:21:18;;;;;;;9.52;5.15;;;;;;;-3.66;59.58;100522.16;5072137;28;20032;-62
2023/01/13 07:23:46;;;;;;;9.63;5.40;;;;;;;-3.58;59.17;100506.38;5072056;28;20430;-62
2023/01/13 07:26:12;;;;;;;8.02;4.82;;;;;;;-3.44;58.48;100514.06;5071586;28;20325;-60
2023/01/13 07:28:39;;;;;;;7.53;4.10;;;;;;;-3.44;58.85;100521.06;5071180;28;20443;-65
2023/01/13 07:31:12;;;;;;;8.15;4.70;;;;;;;-3.41;57.94;100516.63;5070972;28;20032;-62
2023/01/13 07:33:38;;;;;;;11.80;4.68;;;;;;;-3.76;58.57;100468.19;5065432;28;20075;-66
2023/01/13 07:36:04;;;;;;;8.02;4.90;;;;;;;-3.56;59.05;100524.69;5066070;28;20044;-64
2023/01/13 07:38:32;;;;;;;9.35;4.82;;;;;;;-3.73;58.79;100499.56;5053891;28;20115;-63
2023/01/13 07:43:30;;;;;;;8.05;3.92;;;;;;;-3.45;58.55;100548.97;5070851;28;20036;-63
2023/01/13 07:43:43;;;;;;;;;;;;;;;-3.25;57.74;100540.91;5071288;28;20032;-63
2023/01/13 07:46:08;;;;;;;7.85;4.25;;;;;;;-3.48;57.59;100514.97;5071740;28;20549;-64
2023/01/13 07:48:34;;;;;;;7.95;4.43;;;;;;;-3.45;58.42;100541.13;5071094;28;20040;-64
2023/01/13 07:51:05;;;;;;;8.55;4.20;;;;;;;-3.66;57.92;100498.59;5071233;28;20433;-64
2023/01/13 07:53:31;;;;;;;10.02;4.97;;;;;;;-3.47;58.63;100535.03;5070394;28;20037;-62
2023/01/13 07:55:57;;;;;;;10.07;5.35;;;;;;;-3.49;58.70;100527.22;5070113;28;20032;-63
2023/01/13 07:58:24;;;;;;;9.35;5.40;;;;;;;-3.44;58.73;100532.38;5071218;28;20021;-62
2023/01/13 08:00:49;;;;;;;7.60;5.10;;;;;;;-3.47;58.49;100519.34;5071023;28;20044;-64
2023/01/13 08:03:15;;;;;;;8.00;4.78;;;;;;;-3.43;58.86;100530.66;5072239;28;20060;-62
2023/01/13 08:05:41;;;;;;;8.32;4.82;;;;;;;-3.40;58.93;100541.09;5072633;28;20453;-62
2023/01/13 08:08:06;;;;;;;6.95;3.97;;;;;;;-3.36;58.25;100520.09;5057057;28;20025;-62
2023/01/13 08:10:32;;;;;;;9.02;4.88;;;;;;;-3.36;58.34;100529.69;5087130;28;20029;-61
2023/01/13 08:15:41;;;;;;;9.82;5.20;;;;;;;-3.24;57.45;100523.44;5074518;28;20029;-62
2023/01/13 08:18:06;;;;;;;13.05;5.15;;;;;;;-3.30;57.95;100521.75;5074746;28;20043;-60
2023/01/13 08:20:32;;;;;;;8.43;5.03;;;;;;;-3.38;58.40;100519.22;5057015;28;20120;-57
2023/01/13 08:22:58;;;;;;;8.65;5.30;;;;;;;-3.27;57.91;100540.03;5075073;28;20067;-58
2023/01/13 08:25:26;;;;;;;6.80;4.28;;;;;;;-3.32;58.21;100519.16;5074200;28;20025;-59
2023/01/13 08:27:52;;;;;;;8.27;4.75;;;;;;;-3.29;57.91;100540.97;5073867;28;20032;-60
2023/01/13 08:30:17;;;;;;;8.05;4.97;;;;;;;-3.27;57.57;100526.94;5075499;28;20467;-57
2023/01/13 08:32:46;;;;;;;10.63;4.03;;;;;;;-3.27;57.86;100529.56;5074026;28;20056;-62
2023/01/13 08:35:12;;;;;;;8.35;4.10;;;;;;;-3.32;57.70;100524.41;5067393;28;20076;-60
2023/01/13 08:37:38;;;;;;;8.00;4.43;;;;;;;-3.36;58.62;100535.81;5074563;28;20064;-65
2023/01/13 08:40:05;;;;;;;11.25;4.22;;;;;;;-3.38;58.41;100534.94;5074613;28;20052;-58
2023/01/13 08:42:31;;;;;;;7.60;4.78;;;;;;;-3.26;57.64;100533.91;5073942;28;20036;-55
2023/01/13 08:44:56;;;;;;;8.05;4.45;;;;;;;-3.36;58.39;100533.19;5073557;28;20105;-57
2023/01/13 08:47:23;;;;;;;6.82;4.30;;;;;;;-3.34;58.06;100523.56;5074132;28;20031;-57
2023/01/13 08:49:48;;;;;;;6.03;3.83;;;;;;;-3.27;57.97;100513.00;5072107;28;20032;-54
2023/01/13 08:52:15;;;;;;;7.65;4.30;;;;;;;-3.30;58.74;100520.91;5073449;28;20033;-57
2023/01/13 08:54:40;;;;;;;7.15;4.35;;;;;;;-3.26;58.89;100520.81;5073705;28;20346;-54
2023/01/13 08:57:06;;;;;;;9.65;4.20;;;;;;;-3.35;58.73;100492.13;5073450;28;20452;-58
2023/01/13 08:59:32;;;;;;;8.38;4.75;;;;;;;-3.07;57.99;100521.47;5074212;28;20040;-57
2023/01/13 09:01:58;;;;;;;11.50;4.20;;;;;;;-3.05;57.48;100519.69;5072683;28;20368;-62
2023/01/13 09:04:26;;;;;;;10.38;4.47;;;;;;;-3.13;58.33;100504.97;5073033;28;20036;-60
2023/01/13 09:06:52;;;;;;;8.13;4.28;;;;;;;-3.06;57.85;100507.47;5073366;28;20028;-60
2023/01/13 09:09:17;;;;;;;8.27;4.30;;;;;;;-3.14;57.73;100514.56;5062160;28;20356;-60
2023/01/13 09:14:33;;;;;;;6.45;4.18;;;;;;;-3.15;57.89;100511.97;5072052;28;20457;-56
2023/01/13 09:16:59;;;;;;;8.60;4.32;;;;;;;-3.22;57.86;100501.59;5073604;28;20368;-60
2023/01/13 09:19:26;;;;;;;8.57;5.32;;;;;;;-3.53;58.70;100462.66;5070608;28;20121;-59
2023/01/13 09:21:53;;;;;;;10.30;5.00;;;;;;;-3.48;58.80;100471.34;5053234;28;20029;-63
2023/01/13 09:24:19;;;;;;;8.45;4.82;;;;;;;-3.28;58.40;100491.16;5053803;28;20043;-58
2023/01/13 09:26:44;;;;;;;9.32;4.88;;;;;;;-3.29;59.13;100484.19;5070361;28;20032;-58
2023/01/13 09:29:10;;;;;;;9.30;4.78;;;;;;;-3.25;58.99;100498.13;5072181;28;20127;-61
2023/01/13 09:31:35;;;;;;;10.52;5.18;;;;;;;-3.33;58.49;100483.38;5072913;28;20338;-63
2023/01/13 09:36:46;;;;;;;8.98;5.50;;;;;;;-3.33;59.39;100509.56;5072720;28;20036;-66
2023/01/13 09:39:13;;;;;;;9.80;5.68;;;;;;;-3.32;59.28;100503.44;5072289;28;20055;-64
2023/01/13 09:44:50;;;;;;;9.77;4.75;;;;;;;-3.09;59.11;100481.34;5073058;28;20041;-62
2023/01/13 09:47:29;;;;;;;10.57;5.97;;;;;;;-3.12;59.09;100475.25;5072769;28;20020;-63
2023/01/13 09:50:07;;;;;;;15.60;6.03;;;;;;;-3.09;58.75;100473.47;5066712;28;20040;-62
2023/01/13 09:52:32;;;;;;;9.93;5.28;;;;;;;-3.35;59.20;100424.94;5067927;28;20033;-62
2023/01/13 09:55:17;;;;;;;8.38;4.53;;;;;;;-3.07;59.27;100476.06;5071819;28;20178;-63
2023/01/13 09:57:42;;;;;;;10.30;4.95;;;;;;;-3.13;58.94;100465.66;5072892;28;20782;-62
2023/01/13 10:00:24;;;;;;;8.30;4.40;;;;;;;-3.20;59.58;100468.38;5072077;28;20025;-68
2023/01/13 10:03:20;;;;;;;12.82;4.93;;;;;;;-3.13;59.30;100494.47;5063519;28;20457;-59
2023/01/13 10:05:55;;;;;;;12.25;5.30;;;;;;;-3.13;59.00;100484.00;5070928;28;20055;-60
2023/01/13 10:08:28;;;;;;;10.60;4.82;;;;;;;-3.10;58.78;100495.31;5071802;28;20094;-58
2023/01/13 10:13:54;;;;;;;11.27;5.55;;;;;;;-3.15;58.93;100501.50;5050237;28;20068;-59
2023/01/13 10:16:29;;;;;;;7.82;4.57;;;;;;;-3.18;59.22;100495.41;5051413;28;20068;-60
2023/01/13 10:19:08;;;;;;;7.57;4.65;;;;;;;-3.19;58.86;100508.53;5050126;28;20047;-60
2023/01/13 10:21:33;;;;;;;8.35;5.03;;;;;;;-3.19;59.45;100483.22;5048942;28;20036;-61
2023/01/13 10:24:06;;;;;;;9.48;4.90;;;;;;;-3.17;59.22;100491.03;5050513;28;20139;-59
2023/01/13 10:26:37;;;;;;;9.55;5.05;;;;;;;-3.17;59.20;100485.78;5050668;28;20033;-58
2023/01/13 10:29:20;;;;;;;10.82;5.28;;;;;;;-3.16;59.31;100495.38;5050240;28;20203;-62
2023/01/13 10:31:45;;;;;;;10.02;5.47;;;;;;;-3.11;59.39;100487.47;5049609;28;20052;-52
2023/01/13 10:34:11;;;;;;;13.05;6.05;;;;;;;-3.14;59.05;100480.50;5051022;28;20133;-51
2023/01/13 10:36:37;;;;;;;9.27;5.25;;;;;;;-3.07;58.70;100492.66;5050053;28;20080;-57
2023/01/13 10:39:08;;;;;;;8.38;4.93;;;;;;;-3.02;58.84;100487.31;5048485;28;20136;-53
2023/01/13 10:41:35;;;;;;;7.57;5.10;;;;;;;-3.12;58.56;100484.00;5049833;28;20036;-57
2023/01/13 10:44:12;;;;;;;8.50;5.05;;;;;;;-3.32;59.48;100460.66;5054676;28;20055;-58
2023/01/13 10:46:54;;;;;;;8.65;4.85;;;;;;;-3.05;59.13;100492.63;5071748;28;20033;-61
2023/01/13 10:49:27;;;;;;;8.60;4.88;;;;;;;-3.08;59.32;100488.31;5070315;28;20040;-54
2023/01/13 10:51:53;;;;;;;9.85;5.07;;;;;;;-3.14;59.25;100488.38;5052281;28;20032;-55
2023/01/13 10:54:23;;;;;;;11.63;5.10;;;;;;;-3.11;58.45;100484.84;5051446;28;20357;-53
2023/01/13 10:57:10;;;;;;;9.18;5.18;;;;;;;-3.14;59.08;100480.50;5051943;28;20029;-51
2023/01/13 10:59:35;;;;;;;10.23;5.35;;;;;;;-3.14;59.26;100480.50;5070748;28;20131;-56
2023/01/13 11:02:13;;;;;;;10.50;5.03;;;;;;;-3.03;58.84;100481.25;5072048;28;20115;-55
2023/01/13 11:04:54;;;;;;;11.13;4.93;;;;;;;-3.22;59.25;100451.81;5067876;28;20109;-55
2023/01/13 11:07:29;;;;;;;12.10;5.90;;;;;;;-3.05;59.17;100496.13;5052430;28;20046;-54
2023/01/13 11:10:19;;;;;;;10.35;4.15;;;;;;;-2.85;58.82;100489.72;5071514;28;20449;-55
2023/01/13 11:13:02;;;;;;;7.63;4.88;;;;;;;-2.94;58.66;100495.09;5072136;28;20051;-56
2023/01/13 11:16:06;;;;;;;10.98;5.22;;;;;;;-2.97;59.37;100495.13;5072140;28;20444;-53
2023/01/13 11:19:10;;;;;;;9.38;5.35;;;;;;;-2.97;59.00;100484.66;5067615;28;20472;-52
2023/01/13 11:22:04;;;;;;;7.95;4.90;;;;;;;-2.94;58.90;100488.09;5071530;28;20067;-55
2023/01/13 11:24:35;;;;;;;9.02;5.22;;;;;;;-2.93;58.73;100492.47;5071861;28;20074;-54
2023/01/13 11:27:10;;;;;;;10.23;5.18;;;;;;;-2.94;58.99;100479.38;5071569;28;20044;-54
2023/01/13 11:30:01;;;;;;;9.68;5.07;;;;;;;-2.94;59.37;100493.34;5071159;28;20031;-56
2023/01/13 11:32:35;;;;;;;7.28;4.88;;;;;;;-2.96;59.22;100495.13;5071408;28;20052;-58
2023/01/13 11:35:08;;;;;;;8.23;5.07;;;;;;;-3.06;59.40;100486.53;5069577;28;20483;-55
2023/01/13 11:37:40;;;;;;;8.93;5.10;;;;;;;-3.05;59.18;100488.25;5070974;28;20086;-56
2023/01/13 11:40:20;;;;;;;9.57;5.28;;;;;;;-3.05;59.63;100482.13;5075313;28;20437;-57
2023/01/13 11:42:53;;;;;;;11.13;5.40;;;;;;;-3.08;59.29;100495.28;5075463;28;20029;-60
2023/01/13 11:45:40;;;;;;;7.80;5.22;;;;;;;-3.03;59.96;100496.97;5075152;28;20111;-54
2023/01/13 11:48:16;;;;;;;11.43;6.47;;;;;;;-3.09;59.55;100496.16;5075121;28;20357;-57
2023/01/13 11:50:46;;;;;;;11.55;6.05;;;;;;;-3.05;59.75;100503.97;5074473;28;20032;-58
2023/01/13 11:53:59;;;;;;;13.02;6.15;;;;;;;-3.01;59.36;100511.78;5074961;28;20472;-60
2023/01/13 11:57:04;;;;;;;10.98;5.25;;;;;;;-2.96;59.48;100504.72;5072079;28;20032;-59
2023/01/13 11:59:40;;;;;;;12.95;6.07;;;;;;;-2.96;59.49;100509.97;5056028;28;20044;-58
2023/01/13 12:02:20;;;;;;;12.82;5.43;;;;;;;-3.02;59.46;100513.53;5054821;28;20373;-58
2023/01/13 12:05:01;;;;;;;12.05;5.97;;;;;;;-2.98;59.19;100503.88;5054659;28;20024;-56
2023/01/13 12:07:54;;;;;;;10.07;5.30;;;;;;;-2.98;60.03;100498.66;5071586;28;20024;-59
2023/01/13 12:10:40;;;;;;;11.05;6.28;;;;;;;-3.06;60.05;100485.66;5074882;28;20371;-56
2023/01/13 12:13:24;;;;;;;12.55;5.70;;;;;;;-2.98;59.71;100499.53;5073445;28;20032;-57
2023/01/13 12:16:13;;;;;;;10.70;5.43;;;;;;;-3.08;59.63;100504.03;5074612;28;20036;-57
2023/01/13 12:19:17;;;;;;;9.45;5.75;;;;;;;-3.05;59.61;100514.47;5070362;28;20040;-58
2023/01/13 12:21:53;;;;;;;8.57;5.00;;;;;;;-3.12;59.41;100518.06;5054062;28;20449;-57
2023/01/13 12:24:46;;;;;;;11.10;5.40;;;;;;;-3.17;59.97;100522.47;5058310;28;20097;-58